Time;durP1;ratioP1;P1;durP2;ratioP2;P2;SDS_P1;SDS_P2;PMS_P1;PMS_P2;Temp;Humidity;BMP_temperature;BMP_pressure;BME280_temperature;BME280_humidity;BME280_pressure;Samples;Min_cycle;Max_cycle;Signal;HPM_P1;HPM_P2
2022/01/18 05:01:18;;;;;;;102.68;30.23;;;3.40;99.90;;;;;;5604737;22;96278;-75
2022/01/18 05:03:43;;;;;;;89.65;28.48;;;3.40;99.90;;;;;;4994390;28;94560;-75
2022/01/18 05:06:12;;;;;;;89.85;28.55;;;3.30;99.90;;;;;;4996226;28;95233;-75
2022/01/18 05:08:40;;;;;;;69.47;28.05;;;3.30;99.90;;;;;;4996180;28;94976;-75
2022/01/18 05:11:08;;;;;;;83.40;29.52;;;3.30;99.90;;;;;;4996293;28;94341;-75
2022/01/18 05:24:20;;;;;;;96.57;31.95;;;3.30;99.90;;;;;;4998206;28;94489;-81
2022/01/18 05:26:46;;;;;;;92.13;31.70;;;3.40;99.90;;;;;;5003485;28;96792;-82
2022/01/18 05:29:12;;;;;;;81.72;31.17;;;3.40;99.90;;;;;;4997085;28;98038;-82
2022/01/18 05:31:38;;;;;;;100.65;32.17;;;3.40;99.90;;;;;;4998390;28;94561;-82
2022/01/18 05:34:04;;;;;;;92.47;30.75;;;3.40;99.90;;;;;;5000114;28;94582;-82
2022/01/18 05:36:29;;;;;;;90.35;31.88;;;3.40;99.90;;;;;;5001078;28;98143;-82
2022/01/18 05:38:55;;;;;;;92.88;31.77;;;3.40;99.90;;;;;;5001710;28;96311;-81
2022/01/18 05:41:20;;;;;;;100.18;30.27;;;3.40;99.90;;;;;;5000296;28;94382;-81
2022/01/18 05:43:46;;;;;;;75.43;29.92;;;3.40;99.90;;;;;;4996235;28;94556;-81
2022/01/18 05:46:12;;;;;;;109.70;32.75;;;3.40;99.90;;;;;;4995718;28;98773;-82
2022/01/18 05:48:38;;;;;;;92.60;33.00;;;3.40;99.90;;;;;;4996180;28;97790;-81
2022/01/18 05:51:04;;;;;;;95.20;31.92;;;3.40;99.90;;;;;;4995219;28;94762;-81
2022/01/18 05:53:31;;;;;;;86.32;31.05;;;3.40;99.90;;;;;;4997148;28;94413;-81
2022/01/18 05:55:58;;;;;;;98.80;31.33;;;3.40;99.90;;;;;;4997273;28;95718;-82
2022/01/18 05:58:23;;;;;;;101.32;32.90;;;3.40;99.90;;;;;;4995486;28;97775;-81
2022/01/18 06:00:52;;;;;;;75.03;30.08;;;3.40;99.90;;;;;;4996051;28;94332;-82
2022/01/18 06:03:49;;;;;;;101.03;32.30;;;3.30;99.90;;;;;;4998045;28;93544;-81
2022/01/18 06:08:59;;;;;;;99.15;31.00;;;3.30;99.90;;;;;;4997041;28;94512;-82
2022/01/18 06:11:25;;;;;;;111.53;32.80;;;3.30;99.90;;;;;;4996098;28;95496;-81
2022/01/18 06:13:50;;;;;;;77.00;30.45;;;3.30;99.90;;;;;;4994337;28;94887;-82
2022/01/18 06:16:16;;;;;;;95.13;31.77;;;3.30;99.90;;;;;;4994435;28;97001;-82
2022/01/18 06:18:41;;;;;;;99.97;33.67;;;3.30;99.90;;;;;;4995833;28;97876;-81
2022/01/18 06:21:07;;;;;;;97.53;33.58;;;3.40;99.90;;;;;;4996409;28;94558;-81
2022/01/18 06:23:32;;;;;;;113.00;32.60;;;3.30;99.90;;;;;;4997088;28;94500;-81
2022/01/18 06:26:02;;;;;;;111.03;32.55;;;3.20;99.90;;;;;;4997124;28;95294;-82
2022/01/18 06:28:28;;;;;;;93.55;31.42;;;3.10;99.90;;;;;;4996734;28;96529;-81
2022/01/18 06:30:54;;;;;;;97.68;33.90;;;3.10;99.90;;;;;;4996271;28;94401;-81
2022/01/18 06:33:19;;;;;;;85.22;32.03;;;3.00;99.90;;;;;;4996284;28;94500;-81
2022/01/18 06:35:45;;;;;;;120.38;32.72;;;3.00;99.90;;;;;;4995872;28;99666;-82
2022/01/18 06:38:12;;;;;;;94.88;33.22;;;3.00;99.90;;;;;;4997117;28;96908;-81
2022/01/18 06:40:38;;;;;;;90.10;31.20;;;3.00;99.90;;;;;;4996126;28;94524;-82
2022/01/18 06:43:04;;;;;;;88.47;30.45;;;3.00;99.90;;;;;;4996035;28;94412;-81
2022/01/18 06:45:30;;;;;;;87.57;30.65;;;3.00;99.90;;;;;;4996385;28;98128;-81
2022/01/18 06:47:56;;;;;;;87.75;29.48;;;3.00;99.90;;;;;;4997100;28;96762;-81
2022/01/18 06:50:21;;;;;;;115.03;31.17;;;2.90;99.90;;;;;;4998578;28;94335;-81
2022/01/18 06:52:47;;;;;;;113.05;32.90;;;2.80;99.90;;;;;;4998559;28;93611;-81
2022/01/18 06:55:13;;;;;;;103.18;30.65;;;2.70;99.90;;;;;;4996933;28;98100;-81
2022/01/18 06:57:39;;;;;;;104.53;30.08;;;2.60;99.90;;;;;;4997395;28;97160;-79
2022/01/18 07:00:07;;;;;;;100.57;28.83;;;2.40;99.90;;;;;;4998547;28;95407;-79
2022/01/18 07:02:33;;;;;;;94.45;29.73;;;2.20;99.90;;;;;;4996531;28;94380;-79
2022/01/18 07:04:59;;;;;;;103.82;30.38;;;2.10;99.90;;;;;;4994415;28;96421;-79
2022/01/18 07:07:25;;;;;;;119.40;31.92;;;2.00;99.90;;;;;;4994218;28;96187;-80
2022/01/18 07:09:51;;;;;;;102.97;30.58;;;2.00;99.90;;;;;;4994530;28;94392;-80
2022/01/18 07:12:18;;;;;;;93.53;29.70;;;2.00;99.90;;;;;;4993801;28;94518;-80
2022/01/18 07:14:44;;;;;;;107.80;30.63;;;2.00;99.90;;;;;;4993603;28;98249;-79
2022/01/18 07:17:10;;;;;;;102.80;31.40;;;2.10;99.90;;;;;;4995795;28;95262;-82
2022/01/18 07:19:37;;;;;;;121.07;30.88;;;2.10;99.90;;;;;;4995902;28;94473;-82
2022/01/18 07:22:04;;;;;;;121.60;31.63;;;2.30;99.90;;;;;;4994128;28;94767;-81
2022/01/18 07:24:46;;;;;;;106.43;30.42;;;2.40;99.90;;;;;;4993558;28;99041;-81
2022/01/18 07:27:15;;;;;;;95.70;31.50;;;2.50;99.90;;;;;;4995390;28;98889;-82
2022/01/18 07:29:42;;;;;;;75.15;27.25;;;2.60;99.90;;;;;;4995848;28;94347;-81
2022/01/18 07:32:10;;;;;;;97.60;30.95;;;2.70;99.90;;;;;;4996942;28;94396;-84
2022/01/18 07:34:40;;;;;;;78.07;29.52;;;2.90;99.90;;;;;;4996524;28;97840;-82
2022/01/18 07:37:06;;;;;;;101.75;31.90;;;3.00;99.90;;;;;;4997265;28;97767;-82
2022/01/18 07:39:32;;;;;;;81.47;29.95;;;3.10;99.90;;;;;;4997250;28;94379;-82
2022/01/18 07:41:59;;;;;;;74.32;30.25;;;3.10;99.90;;;;;;4998723;28;93701;-82
2022/01/18 07:44:25;;;;;;;106.65;29.95;;;3.20;99.90;;;;;;4998753;28;94735;-82
2022/01/18 07:46:50;;;;;;;77.25;28.80;;;3.30;99.90;;;;;;4997411;28;97038;-82
2022/01/18 07:49:16;;;;;;;79.57;29.25;;;3.30;99.90;;;;;;4997966;28;95481;-82
2022/01/18 07:51:42;;;;;;;79.68;28.67;;;3.30;99.90;;;;;;5002641;28;94520;-81
2022/01/18 07:54:08;;;;;;;85.43;29.20;;;3.50;99.90;;;;;;5002318;28;97203;-82
2022/01/18 07:56:34;;;;;;;71.80;27.35;;;3.50;99.90;;;;;;5000667;28;97090;-82
2022/01/18 07:59:00;;;;;;;102.85;30.33;;;3.50;99.90;;;;;;5001735;28;94500;-82
2022/01/18 08:01:25;;;;;;;72.38;28.50;;;3.60;99.90;;;;;;5001600;28;94350;-82
2022/01/18 08:03:51;;;;;;;92.93;29.85;;;3.60;99.90;;;;;;5002735;28;95496;-81
2022/01/18 08:06:16;;;;;;;74.50;28.83;;;3.70;99.90;;;;;;5001489;28;96093;-81
2022/01/18 08:08:42;;;;;;;101.05;30.98;;;3.70;99.90;;;;;;5001756;28;94421;-80
2022/01/18 08:11:08;;;;;;;79.93;30.90;;;3.80;99.90;;;;;;5002456;28;94386;-79
2022/01/18 08:13:40;;;;;;;79.32;30.92;;;3.80;99.90;;;;;;4998793;28;97683;-80
2022/01/18 08:16:22;;;;;;;97.72;32.50;;;3.80;99.90;;;;;;5001107;28;95116;-82
2022/01/18 08:18:48;;;;;;;67.47;26.83;;;3.90;99.90;;;;;;5001612;28;94434;-82
2022/01/18 08:21:13;;;;;;;74.53;25.27;;;4.00;99.90;;;;;;5002568;28;94456;-82
2022/01/18 08:23:39;;;;;;;58.95;23.40;;;4.00;99.90;;;;;;5004360;28;94529;-81
2022/01/18 08:26:04;;;;;;;54.33;24.13;;;4.00;99.90;;;;;;5002098;28;96813;-81
2022/01/18 08:28:30;;;;;;;54.08;22.15;;;4.00;99.90;;;;;;5002670;28;94399;-82
2022/01/18 08:30:55;;;;;;;74.57;35.72;;;4.00;99.90;;;;;;4990296;28;93341;-81
2022/01/18 08:33:21;;;;;;;69.40;35.97;;;4.00;99.90;;;;;;4984896;28;96832;-81
2022/01/18 08:35:47;;;;;;;80.82;40.65;;;4.10;99.90;;;;;;4984866;28;96762;-81
2022/01/18 08:38:13;;;;;;;76.22;35.95;;;4.20;99.90;;;;;;4985436;28;95408;-81
2022/01/18 08:40:38;;;;;;;69.88;37.10;;;4.20;99.90;;;;;;4986228;28;94356;-81
2022/01/18 08:43:04;;;;;;;77.00;37.10;;;4.30;99.90;;;;;;4988546;28;96589;-82
2022/01/18 08:45:29;;;;;;;130.82;64.72;;;4.40;99.90;;;;;;4991643;28;96409;-81
2022/01/18 08:47:55;;;;;;;113.22;52.22;;;4.40;99.90;;;;;;4984685;28;94366;-81
2022/01/18 08:50:20;;;;;;;65.15;29.25;;;4.40;99.90;;;;;;4978991;28;94454;-81
2022/01/18 08:52:50;;;;;;;58.03;25.92;;;4.50;99.90;;;;;;4978582;28;95594;-81
2022/01/18 08:55:16;;;;;;;54.15;25.27;;;4.50;99.90;;;;;;4978777;28;95128;-82
2022/01/18 08:57:42;;;;;;;50.35;24.45;;;4.60;99.90;;;;;;4979537;28;94600;-82
2022/01/18 09:00:10;;;;;;;46.10;22.85;;;4.70;99.90;;;;;;4977235;28;94625;-81
2022/01/18 09:02:36;;;;;;;44.88;21.60;;;4.80;99.90;;;;;;4975983;28;98897;-81
2022/01/18 09:05:01;;;;;;;46.13;23.17;;;4.90;99.90;;;;;;4977501;28;97503;-81
2022/01/18 09:07:27;;;;;;;52.35;22.90;;;4.90;99.90;;;;;;4978061;28;94442;-81
2022/01/18 09:10:02;;;;;;;49.97;22.88;;;4.90;99.90;;;;;;4979251;28;94648;-81
2022/01/18 09:12:28;;;;;;;52.78;23.10;;;5.00;99.90;;;;;;4978220;28;96898;-84
2022/01/18 09:14:53;;;;;;;51.63;24.45;;;5.00;99.90;;;;;;4977766;28;96782;-80
2022/01/18 09:17:19;;;;;;;45.10;23.00;;;5.00;99.90;;;;;;4978972;28;94513;-80
2022/01/18 09:19:45;;;;;;;51.53;22.40;;;5.00;99.90;;;;;;4976406;28;93869;-80
2022/01/18 09:22:10;;;;;;;46.72;22.23;;;5.10;99.90;;;;;;4976239;28;95391;-81
2022/01/18 09:24:36;;;;;;;45.47;22.92;;;5.10;99.90;;;;;;4975065;28;97686;-81
2022/01/18 09:27:01;;;;;;;52.17;23.08;;;5.20;99.90;;;;;;4977083;28;95336;-80
2022/01/18 09:29:29;;;;;;;46.53;22.15;;;5.10;99.90;;;;;;4975663;28;94658;-79
2022/01/18 09:31:56;;;;;;;50.40;24.05;;;5.10;99.90;;;;;;4977158;28;95556;-81
2022/01/18 09:34:21;;;;;;;46.33;22.23;;;5.20;99.90;;;;;;4975298;28;96688;-80
2022/01/18 09:36:47;;;;;;;42.17;21.55;;;5.30;99.90;;;;;;4976913;28;94401;-81
2022/01/18 09:39:13;;;;;;;48.20;22.80;;;5.30;99.90;;;;;;4978226;28;94419;-81
2022/01/18 09:41:41;;;;;;;44.20;22.10;;;5.30;99.90;;;;;;4975246;28;98202;-81
2022/01/18 09:44:08;;;;;;;44.60;22.70;;;5.60;99.90;;;;;;4975575;28;96203;-81
2022/01/18 09:46:33;;;;;;;47.42;21.80;;;5.70;99.90;;;;;;4975898;28;94372;-82
2022/01/18 09:49:00;;;;;;;39.10;20.60;;;5.90;99.90;;;;;;4979437;28;94652;-81
2022/01/18 09:51:28;;;;;;;34.53;18.08;;;6.00;99.90;;;;;;4977589;28;95388;-81
2022/01/18 09:53:54;;;;;;;34.85;17.77;;;6.30;99.90;;;;;;4975303;28;97526;-84
2022/01/18 09:56:19;;;;;;;26.67;14.38;;;6.30;99.90;;;;;;4975996;28;94479;-78
2022/01/18 09:58:45;;;;;;;28.77;15.55;;;6.20;99.90;;;;;;4977297;28;94367;-80
2022/01/18 10:01:11;;;;;;;28.80;15.95;;;6.10;99.90;;;;;;4977541;28;97686;-79
2022/01/18 10:03:39;;;;;;;31.38;16.48;;;6.30;99.90;;;;;;4976044;28;95051;-79
2022/01/18 10:06:06;;;;;;;30.20;15.93;;;6.20;99.90;;;;;;4974913;28;94533;-78
2022/01/18 10:08:33;;;;;;;34.95;17.73;;;6.10;99.90;;;;;;4976277;28;93816;-79
2022/01/18 10:11:02;;;;;;;32.47;17.58;;;6.00;99.90;;;;;;4975286;28;94553;-80
2022/01/18 10:13:33;;;;;;;40.35;19.92;;;6.20;99.90;;;;;;4978745;28;97519;-80
2022/01/18 10:16:16;;;;;;;28.85;17.38;;;6.20;99.90;;;;;;4975358;28;95510;-79
2022/01/18 10:19:02;;;;;;;34.38;18.20;;;6.30;99.90;;;;;;4974054;28;94516;-79
2022/01/18 10:21:45;;;;;;;34.95;18.67;;;6.10;99.90;;;;;;4976054;28;96803;-82
2022/01/18 10:24:21;;;;;;;30.58;17.05;;;6.30;99.90;;;;;;4977571;28;94544;-79
2022/01/18 10:26:50;;;;;;;28.67;17.02;;;6.50;99.90;;;;;;4975101;28;94842;-79
2022/01/18 10:29:17;;;;;;;30.30;16.77;;;6.50;99.90;;;;;;4976556;28;94517;-79
2022/01/18 10:35:04;;;;;;;48.45;27.65;;;6.40;99.90;;;;;;4987058;28;93628;-81
2022/01/18 10:37:33;;;;;;;41.08;19.90;;;6.70;99.90;;;;;;4991094;28;94417;-81
2022/01/18 10:40:06;;;;;;;29.33;16.13;;;7.00;99.90;;;;;;4983120;28;94683;-81
2022/01/18 10:42:41;;;;;;;27.98;16.17;;;7.00;99.90;;;;;;4979753;28;96486;-81
2022/01/18 10:45:12;;;;;;;32.80;17.55;;;7.00;99.90;;;;;;4980929;28;98873;-81
2022/01/18 10:47:47;;;;;;;50.53;29.65;;;7.00;99.90;;;;;;4980018;28;94524;-81
2022/01/18 10:50:15;;;;;;;38.35;22.83;;;6.80;99.90;;;;;;4978628;28;94578;-81
2022/01/18 10:52:41;;;;;;;71.93;43.20;;;6.90;99.90;;;;;;4978209;28;94485;-80
2022/01/18 10:55:13;;;;;;;33.47;15.82;;;7.20;99.90;;;;;;4979427;28;94383;-80
2022/01/18 10:57:39;;;;;;;45.17;26.15;;;6.90;99.90;;;;;;4978427;28;94905;-80
2022/01/18 11:00:12;;;;;;;30.70;16.25;;;6.90;99.90;;;;;;4978956;28;93903;-81
2022/01/18 11:02:41;;;;;;;24.65;13.85;;;7.00;99.90;;;;;;4978132;28;98091;-80
2022/01/18 11:05:15;;;;;;;25.85;13.68;;;6.90;99.90;;;;;;4977806;28;94433;-82
2022/01/18 11:07:42;;;;;;;28.20;14.63;;;7.10;99.90;;;;;;4982618;28;95422;-81
2022/01/18 11:10:09;;;;;;;30.45;15.00;;;7.10;99.90;;;;;;4976071;28;94713;-81
2022/01/18 11:13:04;;;;;;;27.75;14.05;;;7.00;99.90;;;;;;4977718;28;95551;-81
2022/01/18 11:15:36;;;;;;;27.83;14.95;;;7.10;99.90;;;;;;4979797;28;94440;-83
2022/01/18 11:18:06;;;;;;;26.45;13.95;;;7.30;99.90;;;;;;4980096;28;94381;-80
2022/01/18 11:20:38;;;;;;;23.30;12.45;;;7.50;99.90;;;;;;4984293;28;94512;-81
2022/01/18 11:23:05;;;;;;;25.38;12.40;;;7.40;99.90;;;;;;4977495;28;94424;-85
2022/01/18 11:25:31;;;;;;;26.85;13.63;;;7.50;99.90;;;;;;4977235;28;97812;-83
2022/01/18 11:27:58;;;;;;;26.35;13.60;;;7.80;99.90;;;;;;4981115;28;94422;-83
2022/01/18 11:30:34;;;;;;;23.45;12.15;;;7.90;99.90;;;;;;4979494;28;94600;-84
2022/01/18 11:33:04;;;;;;;20.33;10.75;;;7.70;99.90;;;;;;4979565;28;95508;-83
2022/01/18 11:35:33;;;;;;;22.98;11.75;;;7.50;99.90;;;;;;4979981;28;96348;-83
2022/01/18 11:38:14;;;;;;;20.33;11.07;;;7.10;99.90;;;;;;4980043;28;94488;-83
2022/01/18 11:40:49;;;;;;;21.30;10.80;;;6.90;99.90;;;;;;4980788;28;94471;-79
2022/01/18 11:43:31;;;;;;;21.83;10.45;;;6.70;99.90;;;;;;4978507;28;98161;-83
2022/01/18 11:45:57;;;;;;;21.35;11.20;;;6.70;99.90;;;;;;4984427;28;95433;-81
2022/01/18 11:48:23;;;;;;;20.35;11.45;;;6.80;99.90;;;;;;4981788;28;94423;-80
2022/01/18 11:51:08;;;;;;;24.20;11.30;;;6.80;99.90;;;;;;4984143;28;93635;-80
2022/01/18 11:53:43;;;;;;;16.52;8.75;;;6.80;99.90;;;;;;4980848;28;98198;-80
2022/01/18 11:56:38;;;;;;;13.32;6.90;;;6.80;99.90;;;;;;4984324;28;94337;-80
2022/01/18 11:59:13;;;;;;;14.50;7.13;;;6.60;99.90;;;;;;4983466;28;95370;-81
2022/01/18 12:01:56;;;;;;;14.45;7.20;;;6.50;99.90;;;;;;4983190;28;94494;-81
2022/01/18 12:04:49;;;;;;;17.83;7.60;;;6.60;99.90;;;;;;4984100;28;98354;-81
2022/01/18 12:07:33;;;;;;;14.80;7.55;;;6.70;99.90;;;;;;4982450;28;96822;-81
2022/01/18 12:10:01;;;;;;;16.65;8.85;;;6.70;99.90;;;;;;4981565;28;94519;-80
2022/01/18 12:12:42;;;;;;;18.35;8.30;;;6.60;99.90;;;;;;4981825;28;94586;-80
2022/01/18 12:15:19;;;;;;;15.27;7.68;;;6.50;99.90;;;;;;4981374;28;97807;-83
2022/01/18 12:17:57;;;;;;;15.73;7.57;;;6.50;99.90;;;;;;4983115;28;96659;-81
2022/01/18 12:20:43;;;;;;;15.77;7.38;;;6.50;99.90;;;;;;4987352;28;94412;-81
2022/01/18 12:23:29;;;;;;;16.25;7.80;;;6.50;99.90;;;;;;4984624;28;94495;-80
2022/01/18 12:26:01;;;;;;;12.52;7.55;;;6.50;99.90;;;;;;4981627;28;99313;-80
2022/01/18 12:34:41;;;;;;;17.13;7.95;;;6.30;99.90;;;;;;4972095;28;94349;-80
2022/01/18 12:37:11;;;;;;;17.35;8.77;;;6.30;99.90;;;;;;4981344;28;96767;-81
2022/01/18 12:39:53;;;;;;;13.27;7.53;;;6.40;99.90;;;;;;4986375;28;94394;-80
2022/01/18 12:45:05;;;;;;;16.67;7.53;;;6.30;99.90;;;;;;4980976;28;93604;-80
2022/01/18 12:47:42;;;;;;;15.77;8.32;;;6.20;99.90;;;;;;4979929;28;97277;-79
2022/01/18 12:50:11;;;;;;;15.52;7.88;;;6.30;99.90;;;;;;4979840;28;97779;-79
2022/01/18 12:52:49;;;;;;;14.73;7.43;;;6.30;99.90;;;;;;4981162;28;95579;-79
2022/01/18 12:55:25;;;;;;;16.33;6.65;;;6.30;99.90;;;;;;4983639;28;94522;-80
2022/01/18 12:58:19;;;;;;;15.65;7.72;;;6.40;99.90;;;;;;4982972;28;97037;-80
2022/01/18 13:00:47;;;;;;;14.77;7.05;;;6.60;99.90;;;;;;4981211;28;98458;-80
2022/01/18 13:03:36;;;;;;;12.30;6.70;;;7.00;99.90;;;;;;4981494;28;95742;-80
2022/01/18 13:06:13;;;;;;;15.65;6.45;;;7.30;99.90;;;;;;4982903;28;94514;-80
2022/01/18 13:08:38;;;;;;;12.43;5.25;;;7.50;99.90;;;;;;4980166;28;97546;-79
2022/01/18 13:11:04;;;;;;;11.77;5.40;;;7.60;99.90;;;;;;4980137;28;96630;-79
2022/01/18 13:13:33;;;;;;;10.43;5.57;;;7.50;99.90;;;;;;4981658;28;94121;-79
2022/01/18 13:26:50;;;;;;;16.52;8.18;;;6.90;99.90;;;;;;4981350;28;93951;-79
2022/01/18 13:29:23;;;;;;;13.27;7.53;;;6.80;99.90;;;;;;4979973;28;96267;-79
2022/01/18 13:32:13;;;;;;;14.02;7.32;;;6.70;99.90;;;;;;4979988;28;96973;-79
2022/01/18 13:34:41;;;;;;;15.73;7.38;;;6.70;99.90;;;;;;4981111;28;94437;-79
2022/01/18 13:37:11;;;;;;;12.73;7.40;;;6.80;99.90;;;;;;4983462;28;93830;-80
2022/01/18 13:39:49;;;;;;;12.88;6.78;;;7.00;99.90;;;;;;4979185;28;96693;-81
2022/01/18 13:42:22;;;;;;;14.30;7.88;;;7.30;99.90;;;;;;4977055;28;95244;-81
2022/01/18 13:45:19;;;;;;;14.98;8.13;;;7.60;99.90;;;;;;4977142;28;95524;-80
2022/01/18 13:48:00;;;;;;;14.80;7.55;;;7.80;99.90;;;;;;4977056;28;94595;-81
2022/01/18 13:50:35;;;;;;;16.20;7.93;;;8.00;99.90;;;;;;4975518;28;97777;-81
2022/01/18 13:53:03;;;;;;;14.27;7.40;;;7.90;99.90;;;;;;4976214;28;95452;-81
2022/01/18 13:55:30;;;;;;;8.52;5.47;;;7.90;99.90;;;;;;4979436;28;94478;-81
2022/01/18 13:58:00;;;;;;;15.80;7.15;;;7.60;99.90;;;;;;4977138;28;94555;-81
2022/01/18 14:00:28;;;;;;;10.93;5.25;;;7.40;99.90;;;;;;4977030;28;97958;-81
2022/01/18 14:02:55;;;;;;;9.48;5.53;;;7.20;99.90;;;;;;4977034;28;97868;-81
2022/01/18 14:05:23;;;;;;;11.60;5.15;;;7.10;99.90;;;;;;4977816;28;94423;-81
2022/01/18 14:08:00;;;;;;;9.45;4.97;;;7.00;99.90;;;;;;4977820;28;94799;-81
2022/01/18 14:10:33;;;;;;;12.40;5.63;;;7.00;99.90;;;;;;4978020;28;96267;-81
2022/01/18 14:12:59;;;;;;;10.43;5.35;;;6.90;99.90;;;;;;4976789;28;99134;-81
2022/01/18 14:15:42;;;;;;;13.10;5.75;;;6.90;99.90;;;;;;4978426;28;94633;-81
2022/01/18 14:18:09;;;;;;;22.88;9.45;;;6.90;99.90;;;;;;4977874;28;94597;-81
2022/01/18 14:20:35;;;;;;;18.67;9.95;;;6.90;99.90;;;;;;4979367;28;97839;-81
2022/01/18 14:23:02;;;;;;;16.63;7.13;;;6.90;99.90;;;;;;4978214;28;96571;-81
2022/01/18 14:25:33;;;;;;;18.45;8.48;;;7.00;99.90;;;;;;4977873;28;94481;-81
2022/01/18 14:28:14;;;;;;;19.58;8.98;;;7.00;99.90;;;;;;4977099;28;93688;-81
2022/01/18 14:30:43;;;;;;;15.63;9.27;;;7.00;99.90;;;;;;4976681;28;96914;-81
2022/01/18 14:33:10;;;;;;;20.77;10.77;;;6.90;99.90;;;;;;4976531;28;96981;-81
2022/01/18 14:35:41;;;;;;;16.95;8.20;;;6.90;99.90;;;;;;4976771;28;95420;-81
2022/01/18 14:38:10;;;;;;;11.20;6.40;;;6.80;99.90;;;;;;4975623;28;94436;-81
2022/01/18 14:40:45;;;;;;;10.50;5.30;;;6.80;99.90;;;;;;4976160;28;98013;-81
2022/01/18 14:43:18;;;;;;;10.50;4.78;;;6.80;99.90;;;;;;4975744;28;97659;-81
2022/01/18 14:46:07;;;;;;;8.63;5.55;;;6.80;99.90;;;;;;4976359;28;94550;-81
2022/01/18 14:48:35;;;;;;;9.18;5.25;;;6.70;99.90;;;;;;4977590;28;94446;-81
2022/01/18 14:51:02;;;;;;;7.68;4.28;;;6.60;99.90;;;;;;4976210;28;96692;-81
2022/01/18 14:53:28;;;;;;;12.82;6.25;;;6.60;99.90;;;;;;4976072;28;97856;-81
2022/01/18 14:55:55;;;;;;;10.57;4.75;;;6.60;99.90;;;;;;4976229;28;94423;-81
2022/01/18 14:58:21;;;;;;;12.05;5.63;;;6.60;99.90;;;;;;4976137;28;94602;-81
2022/01/18 15:00:47;;;;;;;9.30;4.40;;;6.60;99.90;;;;;;4975590;28;97801;-81
2022/01/18 15:03:13;;;;;;;10.10;4.85;;;6.60;99.90;;;;;;4974959;28;98705;-81
2022/01/18 15:05:39;;;;;;;9.65;4.40;;;6.50;99.90;;;;;;4977403;28;94415;-81
2022/01/18 15:08:06;;;;;;;11.00;4.60;;;6.50;99.90;;;;;;4977521;28;94854;-81
2022/01/18 15:10:32;;;;;;;7.75;4.90;;;6.40;99.90;;;;;;4975833;28;98154;-81
2022/01/18 15:12:59;;;;;;;9.35;4.40;;;6.40;99.90;;;;;;4977013;28;94453;-81
2022/01/18 15:15:29;;;;;;;8.02;4.65;;;6.30;99.90;;;;;;4975755;28;95307;-81
2022/01/18 15:17:55;;;;;;;7.70;5.03;;;6.30;99.90;;;;;;4976088;28;93805;-81
2022/01/18 15:20:22;;;;;;;11.55;5.00;;;6.20;99.90;;;;;;4975639;28;98038;-81
2022/01/18 15:22:48;;;;;;;16.33;5.43;;;6.20;99.90;;;;;;4974839;28;97691;-81
2022/01/18 15:25:14;;;;;;;12.65;5.20;;;6.20;99.90;;;;;;4974987;28;95485;-81
2022/01/18 15:27:40;;;;;;;9.48;4.82;;;6.20;99.90;;;;;;4975962;28;94551;-81
2022/01/18 15:30:11;;;;;;;11.15;5.13;;;6.10;99.90;;;;;;4975756;28;97451;-81
2022/01/18 15:32:40;;;;;;;9.23;4.63;;;6.10;99.90;;;;;;4974960;28;97801;-81
2022/01/18 15:35:06;;;;;;;9.95;5.70;;;6.00;99.90;;;;;;4976136;28;94607;-81
2022/01/18 15:37:32;;;;;;;10.85;5.78;;;6.00;99.90;;;;;;4977481;28;94470;-81
2022/01/18 15:40:01;;;;;;;14.00;6.20;;;5.90;99.90;;;;;;4976647;28;95506;-81
2022/01/18 15:42:28;;;;;;;10.77;5.25;;;5.90;99.90;;;;;;4975090;28;96859;-81
2022/01/18 15:44:54;;;;;;;9.73;5.45;;;5.80;99.90;;;;;;4976155;28;94422;-81
2022/01/18 15:47:19;;;;;;;10.55;4.60;;;5.80;99.90;;;;;;4976264;28;95145;-81
2022/01/18 15:49:45;;;;;;;7.53;4.43;;;5.80;99.90;;;;;;4976551;28;97119;-81
2022/01/18 15:52:11;;;;;;;9.80;5.07;;;5.80;99.90;;;;;;4974999;28;98560;-81
2022/01/18 15:54:36;;;;;;;7.88;4.32;;;5.70;99.90;;;;;;4975759;28;94592;-81
2022/01/18 15:57:07;;;;;;;7.93;4.85;;;5.70;99.90;;;;;;4977480;28;94490;-81
2022/01/18 15:59:41;;;;;;;6.70;4.57;;;5.70;99.90;;;;;;4975954;28;97610;-81
2022/01/18 16:02:07;;;;;;;9.73;4.53;;;5.60;99.90;;;;;;4975252;28;95228;-81
2022/01/18 16:04:34;;;;;;;9.10;3.75;;;5.70;99.90;;;;;;4975875;28;94529;-81
2022/01/18 16:07:00;;;;;;;5.38;3.33;;;5.70;99.90;;;;;;4976371;28;93912;-81
2022/01/18 16:09:26;;;;;;;10.27;3.35;;;5.60;99.90;;;;;;4976148;28;95607;-81
2022/01/18 16:11:53;;;;;;;9.52;3.58;;;5.60;99.90;;;;;;4975636;28;98052;-81
2022/01/18 16:14:20;;;;;;;5.13;3.25;;;5.50;99.90;;;;;;4977838;28;95528;-81
2022/01/18 16:16:46;;;;;;;9.38;3.80;;;5.50;99.90;;;;;;4978800;28;94413;-81
2022/01/18 16:19:13;;;;;;;8.75;4.57;;;5.40;99.90;;;;;;4980541;28;94519;-81
2022/01/18 16:21:41;;;;;;;6.07;4.22;;;5.40;99.90;;;;;;4978771;28;97935;-80
2022/01/18 16:24:07;;;;;;;8.00;4.05;;;5.40;99.90;;;;;;4980944;28;94505;-80
2022/01/18 16:26:33;;;;;;;7.50;4.00;;;5.40;99.90;;;;;;4983146;28;94549;-79
2022/01/18 16:28:59;;;;;;;6.88;3.85;;;5.40;99.90;;;;;;4978057;28;94597;-80
2022/01/18 16:31:24;;;;;;;7.95;4.35;;;5.40;99.90;;;;;;4977229;28;96629;-80
2022/01/18 16:33:50;;;;;;;10.18;4.50;;;5.40;99.90;;;;;;4977604;28;95231;-79
2022/01/18 16:36:19;;;;;;;8.00;4.70;;;5.30;99.90;;;;;;4977113;28;94642;-80
2022/01/18 16:38:48;;;;;;;9.38;5.22;;;5.30;99.90;;;;;;4977416;28;98263;-80
2022/01/18 16:41:14;;;;;;;11.32;5.00;;;5.30;99.90;;;;;;4977437;28;99203;-80
2022/01/18 16:43:40;;;;;;;10.18;5.57;;;5.30;99.90;;;;;;4977253;28;94587;-80
2022/01/18 16:46:05;;;;;;;9.70;5.68;;;5.30;99.90;;;;;;4977286;28;94463;-80
2022/01/18 16:48:31;;;;;;;11.30;5.97;;;5.30;99.90;;;;;;4978769;28;95669;-80
2022/01/18 16:50:58;;;;;;;12.10;6.68;;;5.40;99.90;;;;;;4978738;28;94933;-80
2022/01/18 16:53:24;;;;;;;14.38;6.47;;;5.40;99.90;;;;;;4977257;28;94556;-80
2022/01/18 16:55:51;;;;;;;13.77;7.43;;;5.40;99.90;;;;;;4979767;28;93858;-80
2022/01/18 16:58:17;;;;;;;12.55;7.25;;;5.40;99.90;;;;;;4979343;28;98782;-80
2022/01/18 17:00:43;;;;;;;17.73;7.28;;;5.40;99.90;;;;;;4977919;28;100059;-83
2022/01/18 17:03:08;;;;;;;12.23;7.80;;;5.40;99.90;;;;;;4977076;28;95523;-76
2022/01/18 17:05:35;;;;;;;13.82;7.88;;;5.40;99.90;;;;;;4977318;28;94555;-77
2022/01/18 17:08:01;;;;;;;14.13;8.15;;;5.40;99.90;;;;;;4977934;28;95113;-80
2022/01/18 17:10:27;;;;;;;16.40;10.48;;;5.40;99.90;;;;;;4978192;28;94331;-77
2022/01/18 17:12:52;;;;;;;22.63;11.77;;;5.40;99.90;;;;;;4978038;28;94511;-78
2022/01/18 17:15:18;;;;;;;21.45;11.48;;;5.40;99.90;;;;;;4993352;22;94484;-76
2022/01/18 17:17:43;;;;;;;17.70;10.98;;;5.40;99.90;;;;;;4975837;28;94471;-76
2022/01/18 17:20:09;;;;;;;15.32;9.60;;;5.40;99.90;;;;;;4975920;28;96011;-77
2022/01/18 17:22:35;;;;;;;16.48;10.10;;;5.40;99.90;;;;;;4976826;28;94614;-77
2022/01/18 17:25:01;;;;;;;13.68;8.45;;;5.40;99.90;;;;;;4975582;28;94380;-77
2022/01/18 17:27:27;;;;;;;11.80;7.47;;;5.40;99.90;;;;;;4976057;28;96616;-78
2022/01/18 17:29:53;;;;;;;13.15;7.55;;;5.40;99.90;;;;;;4975021;28;98942;-77
2022/01/18 17:32:21;;;;;;;9.98;6.90;;;5.40;99.90;;;;;;4977032;28;94472;-76
2022/01/18 17:34:48;;;;;;;13.15;6.95;;;5.40;99.90;;;;;;4976574;28;94491;-76
2022/01/18 17:37:14;;;;;;;16.73;8.48;;;5.40;99.90;;;;;;4976266;28;94368;-75
2022/01/18 17:39:40;;;;;;;14.18;9.07;;;5.40;99.90;;;;;;4976426;28;95005;-75
2022/01/18 17:42:06;;;;;;;11.88;7.05;;;5.40;99.90;;;;;;4976073;28;94778;-74
2022/01/18 17:44:32;;;;;;;16.98;8.50;;;5.40;99.90;;;;;;4976581;28;93667;-75
2022/01/18 17:46:58;;;;;;;12.25;6.97;;;5.40;99.90;;;;;;4976442;28;94711;-77
2022/01/18 17:49:24;;;;;;;10.57;5.25;;;5.40;99.90;;;;;;4974787;28;97711;-76
2022/01/18 17:51:50;;;;;;;6.45;4.55;;;5.40;99.90;;;;;;4976436;28;95421;-76
2022/01/18 17:54:15;;;;;;;6.60;4.90;;;5.40;99.90;;;;;;4976162;28;94554;-76
2022/01/18 17:56:41;;;;;;;11.40;6.85;;;5.40;99.90;;;;;;4976309;28;95551;-78
2022/01/18 17:59:07;;;;;;;9.27;6.70;;;5.40;99.90;;;;;;4974411;28;94956;-77
2022/01/18 18:01:32;;;;;;;9.90;7.55;;;5.40;99.90;;;;;;4976034;28;94506;-77
2022/01/18 18:03:58;;;;;;;11.32;8.10;;;5.40;99.90;;;;;;4976055;28;94360;-77
2022/01/18 18:06:24;;;;;;;11.65;7.47;;;5.30;99.90;;;;;;4976848;28;94876;-76
2022/01/18 18:08:49;;;;;;;12.70;6.72;;;5.30;99.90;;;;;;4976083;28;94964;-76
2022/01/18 18:11:15;;;;;;;10.05;6.22;;;5.30;99.90;;;;;;4977061;28;94487;-77
2022/01/18 18:13:40;;;;;;;11.82;6.63;;;5.30;99.90;;;;;;4976832;28;94504;-77
2022/01/18 18:16:06;;;;;;;15.73;7.65;;;5.30;99.90;;;;;;4974726;28;96429;-79
2022/01/18 18:18:32;;;;;;;15.30;7.45;;;5.30;99.90;;;;;;4975873;28;96205;-77
2022/01/18 18:20:58;;;;;;;14.32;8.40;;;5.30;99.90;;;;;;4976654;28;94504;-75
2022/01/18 18:23:23;;;;;;;13.13;7.30;;;5.30;99.90;;;;;;4975502;28;94737;-75
2022/01/18 18:25:49;;;;;;;12.13;7.35;;;5.20;99.90;;;;;;4975401;28;95968;-76